KAQP

Appleton Municipal Airport

Appleton, Minnesota, USA
METAR KAQP 222151Z AUTO 16013G18KT 10SM CLR 15/03 A3023 RMK AO2
Observed Flight Rules
Apr-22 @ 21:51 UTC (13 minutes ago) Visual Flight Rules
Wind Visibility Clouds
160° at 13 knots
 Gusting to 18 knots
10 miles
  • Clear skies
Temperatures Readings
Current 15°C / 59°F
Dewpoint 3°C / 37°F
Humidity 45%
Altimeter 30.23" Hg
Pressure 1024 hPa
Elevation 311
METAR KAQP 222151Z AUTO 16013G18KT 10SM CLR 15/03 A3023 RMK AO2
Observed Flight Rules
Apr-22 @ 21:51 UTC
(13 minutes ago)
VFR
Wind Visibility
160° at 13 knots
 Gusting to 18 knots
10 miles
Clouds
  • Clear skies
Temperature Dewpoint
15°C / 59°F 3°C / 37°F
Humidity Altimeter Pressure
45% 30.23" Hg 1024 hPa